Terminal Aerodrome Forecast
Issued by NWS

Home | Current Version | Previous Version | Text Only | Print | Product List | Glossary On
Versions: 1 2 3 4 5 6 7 8 9 10 11 12 13 14 15 16
000
FTUS46 KLOX 011306 AAA
TAFBUR
TAF AMD
KBUR 011306Z 0113/0212 VRB03KT 5SM BR BKN003
     FM011500 VRB03KT P6SM BKN007
     FM011700 17008KT P6SM SKC
     FM020500 VRB03KT P6SM SKC
     FM021000 VRB03KT P6SM BKN007=

USA.gov is the U.S. government's official web portal to all federal, state and local government web resources and services.